London Airport
CYXU : now visible

Airfield :











YOU CAN JOIN US ON...

 
LOGIN :

Register | Disclaimer

   EN    FR    IT 

 









Legend :    VFR   Marginal VFR   IFR   Intensive IFR   Very Intensive IFR
Visi :
Ceiling :
>= 8 km
>= 3000ft
5 to 8 km
1000 to 3000 ft
1500m to 5 km
500 to 1000 ft
800 to 1500m
200 to 500 ft
< 800m
< 200 ft
Symbols :   Thunderstorms  Fog  Heavy snow  Heavy precipitations  Wind > 20 kt






- Airport Elevation : 912 ft
- IATA code : YXU


CYXU - London

CURRENT METAR :
  • 101200Z 31016G24KT 4SM -SHSN FEW022 OVC034 M01/M03 A2965 RMK SC2SC6 CVCTV CLD EMBD PRESRR SLP051

EXPIRED METARs :
  • 101127Z 31016G24KT 3SM -SHSN FEW016 SCT022 OVC038 M01/M03 A2963 RMK SC1SC3SC5 SC TR CVCTV CLD EMBD SLP044
  • 101110Z 31014G25KT 2 1/2SM -SHSN FEW016 BKN024 OVC048 M01/M03 A2962 RMK SC2SC3SC3 CVCTV CLD EMBD SLP042
  • 101010Z 30015G27KT 4SM R15/5500VP6000FT/U -SHSN FEW008 BKN022 OVC040 M01/M03 A2958 RMK ST2SC3SC3 CVCTV CLD EMBD SLP030
  • 101000Z 31018G29KT 1/2SM R15/3500VP6000FT/N SHSN VV003 M01/M02 A2958 RMK SN8 CVCTV CLD EMBD SLP028
  • 100950Z 31015G23KT 1SM R15/P6000FT/D -SHSN OVC014 M01/M03 A2957 RMK SN4SC4 CVCTV CLD EMBD SLP026
  • 100940Z 30016G24KT 1 1/2SM -SHSN OVC019 M00/M03 A2957 RMK SC8 CVCTV CLD EMBD SLP024
  • 100907Z 30015G29KT 6SM -SHSN OVC015 M01/M02 A2956 RMK SC8 CVCTV CLD EMBD SLP020

TAF TAF CYXU
Valid from the 10 at 12:00 until the 11 at 12:00 UTC


101139Z 1012/1112 30015G30KT P6SM -SHSN SCT015 BKN030
TEMPO 1012/1015 1SM -SHSN BKN005 OVC012
FM101500 31018G28KT P6SM BKN030
TEMPO 1015/1018 3SM -SHSN BKN015 OVC030
FM101800 30018G28KT P6SM SCT030 BKN050
TEMPO 1018/1022 P6SM -SHRASN BKN020 BKN040
FM102200 30012G22KT P6SM SCT030
BECMG 1022/1024 30010KT
FM110400 29005KT P6SM FEW040 RMK NXT FCST BY 101800Z



MET'MAP, your aeronautical weather chart ! - Copyright ORBIFLY December 2007 - Disclaimer

ORBIFLY MET'MAP TEAM :

Programming & Development : Alexandra Zaïnal
Concept & original design : Baudouin d'Aumeries
Assistance for programming : Marc-Olivier Méhu
Technical & hardware support : Manuel Goepfert

Contact : metmap@orbifly.com




SOURCES & CREDITS :

   NOAA       Earth
Advisory